sensor_id;sensor_type;location;lat;lon;timestamp;P1;durP1;ratioP1;P2;durP2;ratioP2
46230;SDS011;31949;51.404;-0.038;2024-02-28T00:00:43;3.80;;;1.75;;
46230;SDS011;31949;51.404;-0.038;2024-02-28T00:03:11;7.57;;;3.22;;
46230;SDS011;31949;51.404;-0.038;2024-02-28T00:05:38;7.07;;;1.70;;
46230;SDS011;31949;51.404;-0.038;2024-02-28T00:08:05;8.70;;;2.10;;
46230;SDS011;31949;51.404;-0.038;2024-02-28T00:10:32;8.02;;;2.50;;
46230;SDS011;31949;51.404;-0.038;2024-02-28T00:13:00;4.93;;;2.00;;
46230;SDS011;31949;51.404;-0.038;2024-02-28T00:15:27;3.72;;;1.73;;
46230;SDS011;31949;51.404;-0.038;2024-02-28T00:17:54;6.63;;;2.30;;
46230;SDS011;31949;51.404;-0.038;2024-02-28T00:20:23;3.95;;;1.50;;
46230;SDS011;31949;51.404;-0.038;2024-02-28T00:22:53;6.22;;;2.13;;
46230;SDS011;31949;51.404;-0.038;2024-02-28T00:25:21;4.47;;;2.05;;
46230;SDS011;31949;51.404;-0.038;2024-02-28T00:27:48;4.60;;;1.52;;
46230;SDS011;31949;51.404;-0.038;2024-02-28T00:30:15;5.03;;;2.25;;
46230;SDS011;31949;51.404;-0.038;2024-02-28T00:32:43;7.53;;;3.10;;
46230;SDS011;31949;51.404;-0.038;2024-02-28T00:35:10;7.75;;;2.35;;
46230;SDS011;31949;51.404;-0.038;2024-02-28T00:37:38;6.95;;;2.47;;
46230;SDS011;31949;51.404;-0.038;2024-02-28T00:40:05;7.38;;;2.97;;
46230;SDS011;31949;51.404;-0.038;2024-02-28T00:42:34;5.10;;;1.98;;
46230;SDS011;31949;51.404;-0.038;2024-02-28T00:45:02;5.25;;;2.00;;
46230;SDS011;31949;51.404;-0.038;2024-02-28T00:47:30;6.05;;;2.38;;
46230;SDS011;31949;51.404;-0.038;2024-02-28T00:49:58;4.80;;;1.77;;
46230;SDS011;31949;51.404;-0.038;2024-02-28T00:52:25;4.68;;;1.85;;
46230;SDS011;31949;51.404;-0.038;2024-02-28T00:54:52;4.32;;;1.70;;
46230;SDS011;31949;51.404;-0.038;2024-02-28T00:57:20;3.00;;;1.88;;
46230;SDS011;31949;51.404;-0.038;2024-02-28T00:59:47;8.80;;;3.00;;
46230;SDS011;31949;51.404;-0.038;2024-02-28T01:02:15;4.80;;;2.63;;
46230;SDS011;31949;51.404;-0.038;2024-02-28T01:04:42;4.32;;;2.30;;
46230;SDS011;31949;51.404;-0.038;2024-02-28T01:07:09;5.43;;;1.70;;
46230;SDS011;31949;51.404;-0.038;2024-02-28T01:09:40;5.22;;;1.65;;
46230;SDS011;31949;51.404;-0.038;2024-02-28T01:12:07;4.63;;;1.40;;
46230;SDS011;31949;51.404;-0.038;2024-02-28T01:14:34;8.13;;;2.38;;
46230;SDS011;31949;51.404;-0.038;2024-02-28T01:17:01;7.82;;;2.10;;
46230;SDS011;31949;51.404;-0.038;2024-02-28T01:19:28;6.38;;;2.17;;
46230;SDS011;31949;51.404;-0.038;2024-02-28T01:21:56;4.28;;;1.90;;
46230;SDS011;31949;51.404;-0.038;2024-02-28T01:24:24;6.97;;;1.75;;
46230;SDS011;31949;51.404;-0.038;2024-02-28T01:26:52;4.90;;;1.40;;
46230;SDS011;31949;51.404;-0.038;2024-02-28T01:29:19;5.07;;;1.98;;
46230;SDS011;31949;51.404;-0.038;2024-02-28T01:31:46;5.35;;;1.95;;
46230;SDS011;31949;51.404;-0.038;2024-02-28T01:34:13;3.00;;;1.55;;
46230;SDS011;31949;51.404;-0.038;2024-02-28T01:36:41;5.03;;;2.00;;
46230;SDS011;31949;51.404;-0.038;2024-02-28T01:39:08;4.43;;;1.73;;
46230;SDS011;31949;51.404;-0.038;2024-02-28T01:41:35;3.38;;;1.48;;
46230;SDS011;31949;51.404;-0.038;2024-02-28T01:44:02;8.02;;;1.70;;
46230;SDS011;31949;51.404;-0.038;2024-02-28T01:46:30;5.88;;;1.58;;
46230;SDS011;31949;51.404;-0.038;2024-02-28T01:48:58;3.13;;;1.60;;
46230;SDS011;31949;51.404;-0.038;2024-02-28T01:51:26;5.15;;;1.70;;
46230;SDS011;31949;51.404;-0.038;2024-02-28T01:53:54;2.28;;;1.60;;
46230;SDS011;31949;51.404;-0.038;2024-02-28T01:56:23;4.55;;;1.42;;
46230;SDS011;31949;51.404;-0.038;2024-02-28T01:58:52;3.08;;;1.30;;
46230;SDS011;31949;51.404;-0.038;2024-02-28T02:01:22;4.28;;;1.55;;
46230;SDS011;31949;51.404;-0.038;2024-02-28T02:03:52;4.10;;;1.38;;
46230;SDS011;31949;51.404;-0.038;2024-02-28T02:06:19;4.05;;;1.27;;
46230;SDS011;31949;51.404;-0.038;2024-02-28T02:08:47;3.03;;;1.40;;
46230;SDS011;31949;51.404;-0.038;2024-02-28T02:11:15;3.17;;;1.25;;
46230;SDS011;31949;51.404;-0.038;2024-02-28T02:13:52;2.55;;;2.13;;
46230;SDS011;31949;51.404;-0.038;2024-02-28T02:16:20;5.30;;;1.67;;
46230;SDS011;31949;51.404;-0.038;2024-02-28T02:18:53;1.95;;;1.38;;
46230;SDS011;31949;51.404;-0.038;2024-02-28T02:21:26;2.00;;;1.35;;
46230;SDS011;31949;51.404;-0.038;2024-02-28T02:23:57;2.78;;;1.30;;
46230;SDS011;31949;51.404;-0.038;2024-02-28T02:26:24;5.10;;;1.60;;
46230;SDS011;31949;51.404;-0.038;2024-02-28T02:28:51;3.53;;;1.70;;
46230;SDS011;31949;51.404;-0.038;2024-02-28T02:31:18;5.15;;;1.45;;
46230;SDS011;31949;51.404;-0.038;2024-02-28T02:33:46;3.88;;;1.55;;
46230;SDS011;31949;51.404;-0.038;2024-02-28T02:36:13;2.63;;;1.92;;
46230;SDS011;31949;51.404;-0.038;2024-02-28T02:38:40;1.73;;;1.17;;
46230;SDS011;31949;51.404;-0.038;2024-02-28T02:41:07;4.05;;;1.40;;
46230;SDS011;31949;51.404;-0.038;2024-02-28T02:43:35;2.83;;;1.30;;
46230;SDS011;31949;51.404;-0.038;2024-02-28T02:46:02;4.55;;;1.33;;
46230;SDS011;31949;51.404;-0.038;2024-02-28T02:48:29;2.60;;;1.60;;
46230;SDS011;31949;51.404;-0.038;2024-02-28T02:50:57;8.93;;;1.60;;
46230;SDS011;31949;51.404;-0.038;2024-02-28T02:53:24;6.00;;;2.15;;
46230;SDS011;31949;51.404;-0.038;2024-02-28T02:55:51;3.83;;;1.65;;
46230;SDS011;31949;51.404;-0.038;2024-02-28T02:58:20;4.38;;;1.83;;
46230;SDS011;31949;51.404;-0.038;2024-02-28T03:00:48;3.95;;;1.52;;
46230;SDS011;31949;51.404;-0.038;2024-02-28T03:03:16;2.28;;;1.77;;
46230;SDS011;31949;51.404;-0.038;2024-02-28T03:05:43;2.30;;;1.80;;
46230;SDS011;31949;51.404;-0.038;2024-02-28T03:08:11;5.07;;;1.80;;
46230;SDS011;31949;51.404;-0.038;2024-02-28T03:10:38;3.30;;;1.70;;
46230;SDS011;31949;51.404;-0.038;2024-02-28T03:13:06;3.75;;;1.35;;
46230;SDS011;31949;51.404;-0.038;2024-02-28T03:15:33;3.03;;;1.40;;
46230;SDS011;31949;51.404;-0.038;2024-02-28T03:18:00;2.97;;;1.70;;
46230;SDS011;31949;51.404;-0.038;2024-02-28T03:20:28;3.72;;;1.30;;
46230;SDS011;31949;51.404;-0.038;2024-02-28T03:22:55;1.88;;;1.35;;
46230;SDS011;31949;51.404;-0.038;2024-02-28T03:25:23;2.72;;;2.13;;
46230;SDS011;31949;51.404;-0.038;2024-02-28T03:27:50;3.63;;;1.55;;
46230;SDS011;31949;51.404;-0.038;2024-02-28T03:30:17;2.33;;;1.33;;
46230;SDS011;31949;51.404;-0.038;2024-02-28T03:32:45;3.55;;;1.88;;
46230;SDS011;31949;51.404;-0.038;2024-02-28T03:35:13;3.22;;;1.83;;
46230;SDS011;31949;51.404;-0.038;2024-02-28T03:37:40;2.67;;;1.63;;
46230;SDS011;31949;51.404;-0.038;2024-02-28T03:40:07;6.95;;;2.15;;
46230;SDS011;31949;51.404;-0.038;2024-02-28T03:42:35;8.05;;;1.95;;
46230;SDS011;31949;51.404;-0.038;2024-02-28T03:45:02;3.03;;;2.13;;
46230;SDS011;31949;51.404;-0.038;2024-02-28T03:47:30;4.57;;;1.67;;
46230;SDS011;31949;51.404;-0.038;2024-02-28T03:49:57;5.63;;;1.80;;
46230;SDS011;31949;51.404;-0.038;2024-02-28T03:52:26;3.00;;;1.83;;
46230;SDS011;31949;51.404;-0.038;2024-02-28T03:54:53;4.38;;;1.75;;
46230;SDS011;31949;51.404;-0.038;2024-02-28T03:57:20;3.47;;;1.60;;
46230;SDS011;31949;51.404;-0.038;2024-02-28T03:59:47;4.25;;;1.73;;
46230;SDS011;31949;51.404;-0.038;2024-02-28T04:02:14;2.47;;;2.20;;
46230;SDS011;31949;51.404;-0.038;2024-02-28T04:04:42;5.22;;;2.03;;
46230;SDS011;31949;51.404;-0.038;2024-02-28T04:07:09;4.47;;;1.83;;
46230;SDS011;31949;51.404;-0.038;2024-02-28T04:09:36;5.57;;;1.90;;
46230;SDS011;31949;51.404;-0.038;2024-02-28T04:12:04;2.33;;;1.40;;
46230;SDS011;31949;51.404;-0.038;2024-02-28T04:14:31;4.03;;;1.70;;
46230;SDS011;31949;51.404;-0.038;2024-02-28T04:16:58;2.58;;;1.67;;
46230;SDS011;31949;51.404;-0.038;2024-02-28T04:19:26;5.40;;;2.00;;
46230;SDS011;31949;51.404;-0.038;2024-02-28T04:21:53;5.80;;;1.45;;
46230;SDS011;31949;51.404;-0.038;2024-02-28T04:24:20;3.78;;;1.45;;
46230;SDS011;31949;51.404;-0.038;2024-02-28T04:26:47;7.30;;;2.85;;
46230;SDS011;31949;51.404;-0.038;2024-02-28T04:29:15;3.88;;;2.28;;
46230;SDS011;31949;51.404;-0.038;2024-02-28T04:31:42;2.40;;;2.10;;
46230;SDS011;31949;51.404;-0.038;2024-02-28T04:34:09;5.90;;;2.10;;
46230;SDS011;31949;51.404;-0.038;2024-02-28T04:36:36;3.17;;;2.10;;
46230;SDS011;31949;51.404;-0.038;2024-02-28T04:39:03;5.10;;;2.13;;
46230;SDS011;31949;51.404;-0.038;2024-02-28T04:41:33;8.02;;;2.40;;
46230;SDS011;31949;51.404;-0.038;2024-02-28T04:44:00;5.00;;;2.35;;
46230;SDS011;31949;51.404;-0.038;2024-02-28T04:46:28;2.00;;;1.73;;
46230;SDS011;31949;51.404;-0.038;2024-02-28T04:48:55;4.85;;;1.98;;
46230;SDS011;31949;51.404;-0.038;2024-02-28T04:51:22;3.15;;;1.73;;
46230;SDS011;31949;51.404;-0.038;2024-02-28T04:53:50;7.60;;;2.38;;
46230;SDS011;31949;51.404;-0.038;2024-02-28T04:56:17;4.95;;;2.40;;
46230;SDS011;31949;51.404;-0.038;2024-02-28T04:58:44;3.15;;;1.98;;
46230;SDS011;31949;51.404;-0.038;2024-02-28T05:01:12;3.53;;;2.10;;
46230;SDS011;31949;51.404;-0.038;2024-02-28T05:03:40;3.60;;;2.03;;
46230;SDS011;31949;51.404;-0.038;2024-02-28T05:06:07;4.00;;;2.42;;
46230;SDS011;31949;51.404;-0.038;2024-02-28T05:08:37;4.88;;;2.83;;
46230;SDS011;31949;51.404;-0.038;2024-02-28T05:11:04;4.95;;;2.25;;
46230;SDS011;31949;51.404;-0.038;2024-02-28T05:13:31;5.78;;;2.47;;
46230;SDS011;31949;51.404;-0.038;2024-02-28T05:15:59;5.05;;;3.10;;
46230;SDS011;31949;51.404;-0.038;2024-02-28T05:18:26;4.03;;;2.22;;
46230;SDS011;31949;51.404;-0.038;2024-02-28T05:20:54;3.17;;;2.38;;
46230;SDS011;31949;51.404;-0.038;2024-02-28T05:23:21;7.57;;;2.97;;
46230;SDS011;31949;51.404;-0.038;2024-02-28T05:25:49;6.45;;;2.65;;
46230;SDS011;31949;51.404;-0.038;2024-02-28T05:28:17;4.35;;;2.70;;
46230;SDS011;31949;51.404;-0.038;2024-02-28T05:30:44;4.13;;;2.97;;
46230;SDS011;31949;51.404;-0.038;2024-02-28T05:33:16;5.28;;;3.83;;
46230;SDS011;31949;51.404;-0.038;2024-02-28T05:35:44;5.57;;;3.28;;
46230;SDS011;31949;51.404;-0.038;2024-02-28T05:38:11;4.53;;;3.20;;
46230;SDS011;31949;51.404;-0.038;2024-02-28T05:40:40;5.45;;;3.03;;
46230;SDS011;31949;51.404;-0.038;2024-02-28T05:43:08;5.85;;;3.60;;
46230;SDS011;31949;51.404;-0.038;2024-02-28T05:45:35;5.60;;;3.10;;
46230;SDS011;31949;51.404;-0.038;2024-02-28T05:48:03;5.05;;;3.17;;
46230;SDS011;31949;51.404;-0.038;2024-02-28T05:50:30;6.85;;;3.08;;
46230;SDS011;31949;51.404;-0.038;2024-02-28T05:52:59;5.78;;;3.30;;
46230;SDS011;31949;51.404;-0.038;2024-02-28T05:55:26;4.38;;;3.00;;
46230;SDS011;31949;51.404;-0.038;2024-02-28T05:57:54;6.32;;;3.05;;
46230;SDS011;31949;51.404;-0.038;2024-02-28T06:00:22;6.15;;;3.33;;
46230;SDS011;31949;51.404;-0.038;2024-02-28T06:02:49;5.13;;;4.13;;
46230;SDS011;31949;51.404;-0.038;2024-02-28T06:05:16;5.45;;;3.47;;
46230;SDS011;31949;51.404;-0.038;2024-02-28T06:07:44;3.08;;;2.55;;
46230;SDS011;31949;51.404;-0.038;2024-02-28T06:10:11;3.80;;;2.75;;
46230;SDS011;31949;51.404;-0.038;2024-02-28T06:12:38;4.90;;;2.83;;
46230;SDS011;31949;51.404;-0.038;2024-02-28T06:15:06;3.53;;;2.95;;
46230;SDS011;31949;51.404;-0.038;2024-02-28T06:17:33;6.68;;;3.22;;
46230;SDS011;31949;51.404;-0.038;2024-02-28T06:20:01;7.03;;;3.30;;
46230;SDS011;31949;51.404;-0.038;2024-02-28T06:22:28;6.82;;;3.42;;
46230;SDS011;31949;51.404;-0.038;2024-02-28T06:24:55;4.95;;;3.13;;
46230;SDS011;31949;51.404;-0.038;2024-02-28T06:27:22;3.50;;;2.95;;
46230;SDS011;31949;51.404;-0.038;2024-02-28T06:29:50;6.15;;;3.45;;
46230;SDS011;31949;51.404;-0.038;2024-02-28T06:32:18;5.57;;;3.72;;
46230;SDS011;31949;51.404;-0.038;2024-02-28T06:34:45;5.28;;;3.65;;
46230;SDS011;31949;51.404;-0.038;2024-02-28T06:37:13;4.68;;;3.58;;
46230;SDS011;31949;51.404;-0.038;2024-02-28T06:39:40;7.65;;;4.25;;
46230;SDS011;31949;51.404;-0.038;2024-02-28T06:42:08;5.32;;;3.50;;
46230;SDS011;31949;51.404;-0.038;2024-02-28T06:44:35;5.93;;;3.40;;
46230;SDS011;31949;51.404;-0.038;2024-02-28T06:47:03;5.35;;;4.07;;
46230;SDS011;31949;51.404;-0.038;2024-02-28T06:49:30;5.70;;;3.92;;
46230;SDS011;31949;51.404;-0.038;2024-02-28T06:51:57;7.25;;;3.90;;
46230;SDS011;31949;51.404;-0.038;2024-02-28T06:54:28;5.55;;;3.70;;
46230;SDS011;31949;51.404;-0.038;2024-02-28T06:56:55;7.55;;;3.10;;
46230;SDS011;31949;51.404;-0.038;2024-02-28T06:59:23;4.60;;;3.95;;
46230;SDS011;31949;51.404;-0.038;2024-02-28T07:01:50;4.40;;;3.40;;
46230;SDS011;31949;51.404;-0.038;2024-02-28T07:04:18;4.43;;;3.60;;
46230;SDS011;31949;51.404;-0.038;2024-02-28T07:06:45;6.55;;;3.58;;
46230;SDS011;31949;51.404;-0.038;2024-02-28T07:09:12;4.13;;;3.58;;
46230;SDS011;31949;51.404;-0.038;2024-02-28T07:11:42;4.25;;;3.83;;
46230;SDS011;31949;51.404;-0.038;2024-02-28T07:14:09;5.63;;;4.10;;
46230;SDS011;31949;51.404;-0.038;2024-02-28T07:16:36;6.78;;;4.13;;
46230;SDS011;31949;51.404;-0.038;2024-02-28T07:19:04;5.93;;;4.40;;
46230;SDS011;31949;51.404;-0.038;2024-02-28T07:21:31;9.40;;;4.03;;
46230;SDS011;31949;51.404;-0.038;2024-02-28T07:24:00;8.48;;;5.07;;
46230;SDS011;31949;51.404;-0.038;2024-02-28T07:26:27;6.88;;;4.30;;
46230;SDS011;31949;51.404;-0.038;2024-02-28T07:28:54;6.82;;;4.45;;
46230;SDS011;31949;51.404;-0.038;2024-02-28T07:31:22;7.15;;;4.40;;
46230;SDS011;31949;51.404;-0.038;2024-02-28T07:33:49;7.78;;;4.38;;
46230;SDS011;31949;51.404;-0.038;2024-02-28T07:36:17;8.55;;;4.28;;
46230;SDS011;31949;51.404;-0.038;2024-02-28T07:38:44;7.13;;;3.55;;
46230;SDS011;31949;51.404;-0.038;2024-02-28T07:41:11;3.70;;;3.35;;
46230;SDS011;31949;51.404;-0.038;2024-02-28T07:43:41;5.90;;;3.50;;
46230;SDS011;31949;51.404;-0.038;2024-02-28T07:46:10;5.32;;;3.42;;
46230;SDS011;31949;51.404;-0.038;2024-02-28T07:48:38;6.25;;;3.40;;
46230;SDS011;31949;51.404;-0.038;2024-02-28T07:51:06;7.63;;;3.55;;
46230;SDS011;31949;51.404;-0.038;2024-02-28T07:53:33;3.97;;;3.35;;
46230;SDS011;31949;51.404;-0.038;2024-02-28T07:56:01;5.55;;;2.80;;
46230;SDS011;31949;51.404;-0.038;2024-02-28T07:58:29;4.75;;;3.40;;
46230;SDS011;31949;51.404;-0.038;2024-02-28T08:00:56;4.95;;;3.08;;
46230;SDS011;31949;51.404;-0.038;2024-02-28T08:03:24;5.95;;;3.30;;
46230;SDS011;31949;51.404;-0.038;2024-02-28T08:05:51;4.25;;;2.58;;
46230;SDS011;31949;51.404;-0.038;2024-02-28T08:08:18;3.42;;;2.33;;
46230;SDS011;31949;51.404;-0.038;2024-02-28T08:10:46;5.70;;;2.42;;
46230;SDS011;31949;51.404;-0.038;2024-02-28T08:13:15;6.10;;;3.10;;
46230;SDS011;31949;51.404;-0.038;2024-02-28T08:15:43;3.47;;;2.63;;
46230;SDS011;31949;51.404;-0.038;2024-02-28T08:18:10;6.63;;;3.53;;
46230;SDS011;31949;51.404;-0.038;2024-02-28T08:20:38;6.57;;;2.80;;
46230;SDS011;31949;51.404;-0.038;2024-02-28T08:23:05;4.65;;;2.60;;
46230;SDS011;31949;51.404;-0.038;2024-02-28T08:25:33;6.22;;;3.10;;
46230;SDS011;31949;51.404;-0.038;2024-02-28T08:28:00;6.72;;;3.10;;
46230;SDS011;31949;51.404;-0.038;2024-02-28T08:30:27;4.15;;;3.25;;
46230;SDS011;31949;51.404;-0.038;2024-02-28T08:32:55;9.70;;;5.15;;
46230;SDS011;31949;51.404;-0.038;2024-02-28T08:35:22;5.60;;;3.78;;
46230;SDS011;31949;51.404;-0.038;2024-02-28T08:37:50;5.55;;;3.83;;
46230;SDS011;31949;51.404;-0.038;2024-02-28T08:40:18;7.20;;;3.80;;
46230;SDS011;31949;51.404;-0.038;2024-02-28T08:42:51;6.57;;;4.10;;
46230;SDS011;31949;51.404;-0.038;2024-02-28T08:45:22;5.00;;;4.18;;
46230;SDS011;31949;51.404;-0.038;2024-02-28T08:47:50;5.72;;;4.72;;
46230;SDS011;31949;51.404;-0.038;2024-02-28T08:50:18;7.50;;;4.32;;
46230;SDS011;31949;51.404;-0.038;2024-02-28T08:52:46;7.43;;;4.30;;
46230;SDS011;31949;51.404;-0.038;2024-02-28T08:55:17;5.03;;;3.55;;
46230;SDS011;31949;51.404;-0.038;2024-02-28T08:57:46;8.15;;;4.93;;
46230;SDS011;31949;51.404;-0.038;2024-02-28T09:00:15;5.78;;;3.97;;
46230;SDS011;31949;51.404;-0.038;2024-02-28T09:02:44;8.07;;;4.25;;
46230;SDS011;31949;51.404;-0.038;2024-02-28T09:05:11;8.90;;;4.50;;
46230;SDS011;31949;51.404;-0.038;2024-02-28T09:07:39;8.75;;;5.03;;
46230;SDS011;31949;51.404;-0.038;2024-02-28T09:10:06;7.95;;;4.20;;
46230;SDS011;31949;51.404;-0.038;2024-02-28T09:12:34;8.85;;;4.38;;
46230;SDS011;31949;51.404;-0.038;2024-02-28T09:15:02;9.02;;;5.43;;
46230;SDS011;31949;51.404;-0.038;2024-02-28T09:17:29;7.38;;;4.00;;
46230;SDS011;31949;51.404;-0.038;2024-02-28T09:19:58;4.90;;;3.47;;
46230;SDS011;31949;51.404;-0.038;2024-02-28T09:22:28;6.07;;;3.97;;
46230;SDS011;31949;51.404;-0.038;2024-02-28T09:24:55;8.15;;;4.47;;
46230;SDS011;31949;51.404;-0.038;2024-02-28T09:27:22;6.57;;;4.50;;
46230;SDS011;31949;51.404;-0.038;2024-02-28T09:29:51;5.30;;;4.50;;
46230;SDS011;31949;51.404;-0.038;2024-02-28T09:32:18;6.38;;;4.20;;
46230;SDS011;31949;51.404;-0.038;2024-02-28T09:34:45;9.43;;;6.00;;
46230;SDS011;31949;51.404;-0.038;2024-02-28T09:37:13;9.05;;;5.65;;
46230;SDS011;31949;51.404;-0.038;2024-02-28T09:39:41;8.15;;;5.57;;
46230;SDS011;31949;51.404;-0.038;2024-02-28T09:42:09;10.68;;;6.78;;
46230;SDS011;31949;51.404;-0.038;2024-02-28T09:44:37;7.72;;;5.85;;
46230;SDS011;31949;51.404;-0.038;2024-02-28T09:47:05;12.10;;;5.78;;
46230;SDS011;31949;51.404;-0.038;2024-02-28T09:49:32;9.98;;;6.30;;
46230;SDS011;31949;51.404;-0.038;2024-02-28T09:52:04;12.48;;;6.47;;
46230;SDS011;31949;51.404;-0.038;2024-02-28T09:54:31;9.65;;;6.85;;
46230;SDS011;31949;51.404;-0.038;2024-02-28T09:56:59;7.85;;;5.60;;
46230;SDS011;31949;51.404;-0.038;2024-02-28T09:59:26;9.02;;;5.57;;
46230;SDS011;31949;51.404;-0.038;2024-02-28T10:02:09;7.38;;;4.70;;
46230;SDS011;31949;51.404;-0.038;2024-02-28T10:04:38;8.43;;;5.53;;
46230;SDS011;31949;51.404;-0.038;2024-02-28T10:07:13;8.82;;;4.28;;
46230;SDS011;31949;51.404;-0.038;2024-02-28T10:09:41;8.73;;;5.13;;
46230;SDS011;31949;51.404;-0.038;2024-02-28T10:12:22;6.40;;;4.47;;
46230;SDS011;31949;51.404;-0.038;2024-02-28T10:15:09;7.00;;;4.38;;
46230;SDS011;31949;51.404;-0.038;2024-02-28T10:17:37;8.45;;;3.92;;
46230;SDS011;31949;51.404;-0.038;2024-02-28T10:20:04;5.43;;;3.58;;
46230;SDS011;31949;51.404;-0.038;2024-02-28T10:22:35;6.13;;;3.10;;
46230;SDS011;31949;51.404;-0.038;2024-02-28T10:25:03;11.18;;;4.22;;
46230;SDS011;31949;51.404;-0.038;2024-02-28T10:27:34;9.35;;;4.30;;
46230;SDS011;31949;51.404;-0.038;2024-02-28T10:30:02;5.38;;;3.13;;
46230;SDS011;31949;51.404;-0.038;2024-02-28T10:32:31;6.28;;;2.95;;
46230;SDS011;31949;51.404;-0.038;2024-02-28T10:35:03;4.53;;;2.78;;
46230;SDS011;31949;51.404;-0.038;2024-02-28T10:37:38;43.08;;;9.48;;
46230;SDS011;31949;51.404;-0.038;2024-02-28T10:40:06;15.25;;;5.70;;
46230;SDS011;31949;51.404;-0.038;2024-02-28T10:42:36;6.03;;;2.67;;
46230;SDS011;31949;51.404;-0.038;2024-02-28T10:45:06;5.65;;;2.50;;
46230;SDS011;31949;51.404;-0.038;2024-02-28T10:47:52;4.78;;;1.85;;
46230;SDS011;31949;51.404;-0.038;2024-02-28T10:50:20;2.38;;;1.77;;
46230;SDS011;31949;51.404;-0.038;2024-02-28T10:52:48;4.18;;;2.85;;
46230;SDS011;31949;51.404;-0.038;2024-02-28T10:55:20;7.13;;;2.00;;
46230;SDS011;31949;51.404;-0.038;2024-02-28T11:00:22;5.32;;;2.15;;
46230;SDS011;31949;51.404;-0.038;2024-02-28T11:02:50;3.42;;;2.05;;
46230;SDS011;31949;51.404;-0.038;2024-02-28T11:05:18;4.45;;;1.98;;
46230;SDS011;31949;51.404;-0.038;2024-02-28T11:07:45;2.97;;;1.90;;
46230;SDS011;31949;51.404;-0.038;2024-02-28T11:10:13;4.60;;;1.30;;
46230;SDS011;31949;51.404;-0.038;2024-02-28T11:12:41;3.10;;;1.00;;
46230;SDS011;31949;51.404;-0.038;2024-02-28T11:15:15;7.85;;;2.28;;
46230;SDS011;31949;51.404;-0.038;2024-02-28T11:17:44;4.25;;;1.90;;
46230;SDS011;31949;51.404;-0.038;2024-02-28T11:20:12;8.35;;;2.00;;
46230;SDS011;31949;51.404;-0.038;2024-02-28T11:22:39;5.45;;;2.05;;
46230;SDS011;31949;51.404;-0.038;2024-02-28T11:25:07;2.47;;;1.38;;
46230;SDS011;31949;51.404;-0.038;2024-02-28T11:27:44;3.55;;;1.10;;
46230;SDS011;31949;51.404;-0.038;2024-02-28T11:30:15;3.25;;;1.38;;
46230;SDS011;31949;51.404;-0.038;2024-02-28T11:32:44;3.63;;;1.38;;
46230;SDS011;31949;51.404;-0.038;2024-02-28T11:35:11;5.65;;;1.65;;
46230;SDS011;31949;51.404;-0.038;2024-02-28T11:37:40;4.15;;;1.48;;
46230;SDS011;31949;51.404;-0.038;2024-02-28T11:40:08;3.90;;;1.30;;
46230;SDS011;31949;51.404;-0.038;2024-02-28T11:42:36;5.53;;;1.92;;
46230;SDS011;31949;51.404;-0.038;2024-02-28T11:45:06;5.80;;;2.40;;
46230;SDS011;31949;51.404;-0.038;2024-02-28T11:47:36;2.40;;;1.15;;
46230;SDS011;31949;51.404;-0.038;2024-02-28T11:50:04;4.25;;;1.42;;
46230;SDS011;31949;51.404;-0.038;2024-02-28T11:52:36;5.68;;;1.83;;
46230;SDS011;31949;51.404;-0.038;2024-02-28T11:55:04;5.20;;;2.15;;
46230;SDS011;31949;51.404;-0.038;2024-02-28T11:57:31;3.85;;;1.10;;
46230;SDS011;31949;51.404;-0.038;2024-02-28T12:00:04;3.80;;;1.40;;
46230;SDS011;31949;51.404;-0.038;2024-02-28T12:02:35;4.95;;;1.27;;
46230;SDS011;31949;51.404;-0.038;2024-02-28T12:05:03;3.10;;;1.58;;
46230;SDS011;31949;51.404;-0.038;2024-02-28T12:07:31;1.98;;;1.02;;
46230;SDS011;31949;51.404;-0.038;2024-02-28T12:09:59;5.80;;;1.55;;
46230;SDS011;31949;51.404;-0.038;2024-02-28T12:12:27;6.55;;;2.42;;
46230;SDS011;31949;51.404;-0.038;2024-02-28T12:15:01;3.33;;;1.25;;
46230;SDS011;31949;51.404;-0.038;2024-02-28T12:17:31;4.85;;;1.83;;
46230;SDS011;31949;51.404;-0.038;2024-02-28T12:19:59;3.60;;;1.50;;
46230;SDS011;31949;51.404;-0.038;2024-02-28T12:22:27;7.35;;;1.80;;
46230;SDS011;31949;51.404;-0.038;2024-02-28T12:24:54;4.75;;;1.67;;
46230;SDS011;31949;51.404;-0.038;2024-02-28T12:27:22;5.30;;;1.80;;
46230;SDS011;31949;51.404;-0.038;2024-02-28T12:29:50;4.18;;;1.38;;
46230;SDS011;31949;51.404;-0.038;2024-02-28T12:32:17;3.45;;;1.20;;
46230;SDS011;31949;51.404;-0.038;2024-02-28T12:34:44;6.88;;;1.67;;
46230;SDS011;31949;51.404;-0.038;2024-02-28T12:37:11;5.28;;;1.42;;
46230;SDS011;31949;51.404;-0.038;2024-02-28T12:39:39;3.92;;;1.38;;
46230;SDS011;31949;51.404;-0.038;2024-02-28T12:42:06;5.05;;;1.45;;
46230;SDS011;31949;51.404;-0.038;2024-02-28T12:44:35;5.40;;;1.25;;
46230;SDS011;31949;51.404;-0.038;2024-02-28T12:47:02;8.40;;;1.45;;
46230;SDS011;31949;51.404;-0.038;2024-02-28T12:49:30;4.63;;;1.58;;
46230;SDS011;31949;51.404;-0.038;2024-02-28T12:51:57;3.10;;;1.30;;
46230;SDS011;31949;51.404;-0.038;2024-02-28T12:54:24;4.43;;;2.03;;
46230;SDS011;31949;51.404;-0.038;2024-02-28T12:56:51;4.40;;;1.40;;
46230;SDS011;31949;51.404;-0.038;2024-02-28T12:59:19;8.70;;;2.03;;
46230;SDS011;31949;51.404;-0.038;2024-02-28T13:01:47;5.25;;;1.98;;
46230;SDS011;31949;51.404;-0.038;2024-02-28T13:04:17;6.60;;;1.60;;
46230;SDS011;31949;51.404;-0.038;2024-02-28T13:06:44;8.20;;;2.83;;
46230;SDS011;31949;51.404;-0.038;2024-02-28T13:09:14;5.63;;;2.05;;
46230;SDS011;31949;51.404;-0.038;2024-02-28T13:11:41;9.15;;;2.20;;
46230;SDS011;31949;51.404;-0.038;2024-02-28T13:14:09;4.43;;;1.42;;
46230;SDS011;31949;51.404;-0.038;2024-02-28T13:16:37;6.30;;;1.50;;
46230;SDS011;31949;51.404;-0.038;2024-02-28T13:19:04;7.30;;;2.17;;
46230;SDS011;31949;51.404;-0.038;2024-02-28T13:21:32;3.55;;;1.33;;
46230;SDS011;31949;51.404;-0.038;2024-02-28T13:24:00;6.53;;;1.42;;
46230;SDS011;31949;51.404;-0.038;2024-02-28T13:26:28;6.50;;;1.73;;
46230;SDS011;31949;51.404;-0.038;2024-02-28T13:28:56;4.65;;;1.50;;
46230;SDS011;31949;51.404;-0.038;2024-02-28T13:31:23;2.53;;;1.30;;
46230;SDS011;31949;51.404;-0.038;2024-02-28T13:33:51;2.67;;;1.13;;
46230;SDS011;31949;51.404;-0.038;2024-02-28T13:36:18;2.92;;;1.10;;
46230;SDS011;31949;51.404;-0.038;2024-02-28T13:38:46;3.40;;;1.20;;
46230;SDS011;31949;51.404;-0.038;2024-02-28T13:41:13;6.25;;;1.20;;
46230;SDS011;31949;51.404;-0.038;2024-02-28T13:43:41;5.30;;;1.00;;
46230;SDS011;31949;51.404;-0.038;2024-02-28T13:46:08;4.55;;;1.10;;
46230;SDS011;31949;51.404;-0.038;2024-02-28T13:48:37;3.83;;;1.20;;
46230;SDS011;31949;51.404;-0.038;2024-02-28T13:51:04;2.53;;;1.13;;
46230;SDS011;31949;51.404;-0.038;2024-02-28T13:53:31;6.88;;;1.35;;
46230;SDS011;31949;51.404;-0.038;2024-02-28T13:55:59;3.08;;;1.23;;
46230;SDS011;31949;51.404;-0.038;2024-02-28T13:58:26;4.22;;;1.55;;
46230;SDS011;31949;51.404;-0.038;2024-02-28T14:01:05;3.83;;;1.50;;
46230;SDS011;31949;51.404;-0.038;2024-02-28T14:03:33;6.50;;;1.63;;
46230;SDS011;31949;51.404;-0.038;2024-02-28T14:06:01;5.15;;;1.58;;
46230;SDS011;31949;51.404;-0.038;2024-02-28T14:08:28;10.45;;;2.42;;
46230;SDS011;31949;51.404;-0.038;2024-02-28T14:11:01;5.53;;;1.42;;
46230;SDS011;31949;51.404;-0.038;2024-02-28T14:13:29;5.05;;;1.42;;
46230;SDS011;31949;51.404;-0.038;2024-02-28T14:15:56;6.85;;;1.95;;
46230;SDS011;31949;51.404;-0.038;2024-02-28T14:18:24;4.20;;;1.77;;
46230;SDS011;31949;51.404;-0.038;2024-02-28T14:20:51;7.80;;;1.73;;
46230;SDS011;31949;51.404;-0.038;2024-02-28T14:23:18;7.32;;;1.77;;
46230;SDS011;31949;51.404;-0.038;2024-02-28T14:25:46;7.20;;;2.72;;
46230;SDS011;31949;51.404;-0.038;2024-02-28T14:28:14;8.00;;;2.20;;
46230;SDS011;31949;51.404;-0.038;2024-02-28T14:30:41;8.02;;;2.65;;
46230;SDS011;31949;51.404;-0.038;2024-02-28T14:33:09;9.15;;;2.60;;
46230;SDS011;31949;51.404;-0.038;2024-02-28T14:35:40;7.97;;;2.50;;
46230;SDS011;31949;51.404;-0.038;2024-02-28T14:38:07;7.72;;;2.92;;
46230;SDS011;31949;51.404;-0.038;2024-02-28T14:40:36;8.73;;;2.45;;